Close

Questo sito utlizza cookie. Può leggere come li usiamo nella nostra Privacy Policy.

Ronchi Tower
Ronchi Tower

News

Posted by Fabio Davanzo - 01 Jul 2017
Views: 130

E' iniziata l'estate e come previsto sono partiti i nuovi collegamenti con Charleroi, Keflavik, Olbia e qualche destinazione occasionale. Inoltre sono usciti i dati di traffico relativi a Maggio con andamento un po' altalenante ma sostanzialmente positivo.

...

From Facebook

Real Time Flights

(Updated: 23 Aug - 06:09)    
Fonte: Triesteairport.it

Arrivals

Volo Provenienza Effettivo Note
AZ 01357 Roma FCO 10:25
LH 01934 Munich 12:25
AZ 01365 Roma FCO 16:10
AZ 01363 Roma FCO 22:35
LH 01938 Munich 22:50

Departures

Volo Destinazione Effettivo Note
AZ 01356 Roma FCO 07:05 Check-in aperto
AZ 01358 Roma FCO 11:10
LH 01935 Munich 13:05 Cambio gate
AZ 01364 Roma FCO 19:00

METAR & TAF

2017/08/23 03:50 LIPQ 230350Z AUTO 02003KT 9999 NCD 14/12 Q1017
2017/08/22 18:21 TAF LIPQ 221700Z 2218/2318 VRB05KT9999 FEW030
2017/08/23 03:50 LIPZ 230350Z 03005KT CAVOK 17/14 Q1016 NOSIG
2017/08/22 18:21 TAF LIPZ 221700Z 2218/2324 15010KT 9999 FEW030 BECMG 2218/2221 03008KT BECMG 2310/2312 15010KT BECMG 2318/2320 VRB05KT
2017/08/23 03:50 LIPH 230350Z AUTO 02003KT 9999 OVC180/// 17/14 Q1017
2017/08/22 18:21 TAF LIPH 221700Z 2218/2318 VRB05KT 9999 FEW030
2017/08/23 03:50 LIRF 230350Z 08004KT CAVOK 17/12 Q1016 NOSIG
2017/08/22 18:24 TAF LIRF 221700Z 2218/2324 29013KT CAVOK BECMG 2219/2221 04008KT BECMG 2308/2310 24012KT
2017/08/23 03:20 LIML 230320Z 07004KT 040V120 CAVOK 19/12 Q1016 NOSIG
2017/08/22 18:21 TAF LIML 221700Z 2218/2318 VRB05KT CAVOK
2017/08/23 03:50 EDDM 230350Z 10001KT 9999 3000NE BCFG NSC 08/07 Q1019 NOSIG
2017/08/22 18:30 TAF EDDM 221700Z 2218/2324 VRB03KT CAVOK BECMG 2308/2310 09005KT BECMG 2316/2318 VRB03KT
2017/08/23 03:50 EGSS 230350Z AUTO 12009KT 3700 HZ NCD 17/16 Q1013
2017/08/23 02:30 TAF AMD EGSS 230226Z 2302/2406 11007KT 3500 HZ FEW040 TEMPO 2302/2303 +SHRA PROB40 2302/2306 1200 BECMG 2306/2309 9999 NSW BECMG 2310/2313 27010KT PROB30 TEMPO 2311/2314 9000 -RA BKN010

FlightRadar24

Radar Meteo

Traffic data

Giugno 2017

Passeggeri: 73895+7,7% (rank: 24)
Nazionali 49503 +16,3% 22°
Internazionali 24044 -6,6% 27°

Movimenti: 1432+15,4% (rank: 23)
Tot commerciale 847 +19,0% 24°
Aviazione generale 585 +10,6% 10°

Cargo (tons): 17,3-42,8% (rank: 22)

Gennaio - Giugno 2017

Passeggeri: 365374+6,2% (rank: 24)
Nazionali 244401 +11,3% 22°
Internazionali 119689 -2,9% 25°

Movimenti: 7990+14,4% (rank: 22)
Tot commerciale 4483 +10,6% 23°
Aviazione generale 3507 +19,5%

Cargo (tons): 153,4-41,9% (rank: 19)

Photo

Reims F152
Reims F152
Distinct views: 5
Boeing 767-300ER
Boeing 767-300ER
Distinct views: 22
Eurocopter EC-145
Eurocopter EC-145
Distinct views: 93
Lockheed C-130H-30 Hercules
Lockheed C-130H-30 Hercules
Total views: 753